createdAt,value
2023-05-09T00:03:07.490Z,98145.47
2023-05-09T00:08:08.739Z,98145.97
2023-05-09T00:13:10.081Z,98138.53
2023-05-09T00:18:11.385Z,98135.03
2023-05-09T00:23:12.675Z,98138.16
2023-05-09T00:28:13.969Z,98132.31
2023-05-09T00:33:15.185Z,98127.25
2023-05-09T00:38:16.488Z,98124.75
2023-05-09T00:43:17.741Z,98126.47
2023-05-09T00:48:19.024Z,98113.94
2023-05-09T00:53:20.753Z,98110.22
2023-05-09T00:58:21.985Z,98117.63
2023-05-09T01:03:23.344Z,98125.78
2023-05-09T01:08:24.743Z,98124.19
2023-05-09T01:13:26.027Z,98114.88
2023-05-09T01:18:27.274Z,98105.94
2023-05-09T01:23:28.554Z,98107.69
2023-05-09T01:28:29.766Z,98103.03
2023-05-09T01:33:31.441Z,98094.88
2023-05-09T01:38:32.649Z,98100.16
2023-05-09T01:43:33.919Z,98097.72
2023-05-09T01:48:35.243Z,98085.00
2023-05-09T01:53:36.605Z,98086.28
2023-05-09T01:58:37.883Z,98086.25
2023-05-09T02:03:39.192Z,98080.72
2023-05-09T02:08:41.072Z,98078.38
2023-05-09T02:13:42.321Z,98066.03
2023-05-09T02:18:43.583Z,98077.53
2023-05-09T02:23:45.048Z,98077.75
2023-05-09T02:28:46.442Z,98075.75
2023-05-09T02:33:51.347Z,98073.97
2023-05-09T02:38:52.634Z,98061.91
2023-05-09T02:43:53.931Z,98063.94
2023-05-09T02:48:55.221Z,98063.19
2023-05-09T02:53:56.848Z,98059.25
2023-05-09T02:58:58.118Z,98051.47
2023-05-09T03:03:59.417Z,98051.56
2023-05-09T03:09:00.845Z,98048.19
2023-05-09T03:14:02.099Z,98041.63
2023-05-09T03:19:03.324Z,98039.63
2023-05-09T03:24:07.738Z,98042.78
2023-05-09T03:29:09.041Z,98041.13
2023-05-09T03:34:15.070Z,98042.38
2023-05-09T03:39:16.555Z,98034.13
2023-05-09T03:44:18.011Z,98036.97
2023-05-09T03:49:19.228Z,98036.06
2023-05-09T03:54:20.644Z,98029.91
2023-05-09T03:59:21.944Z,98015.13
2023-05-09T04:04:23.172Z,98007.66
2023-05-09T04:09:24.432Z,98013.41
2023-05-09T04:14:25.778Z,97996.28
2023-05-09T04:19:27.066Z,97995.75
2023-05-09T04:24:28.343Z,97988.25
2023-05-09T04:29:29.579Z,97990.22
2023-05-09T04:34:31.685Z,97979.53
2023-05-09T04:39:32.898Z,97981.81
2023-05-09T04:44:35.760Z,97972.66
2023-05-09T04:49:36.974Z,97971.19
2023-05-09T04:54:38.165Z,97978.03
2023-05-09T04:59:39.437Z,97970.41
2023-05-09T05:04:40.796Z,97962.78
2023-05-09T05:09:42.085Z,97964.41
2023-05-09T05:14:43.308Z,97948.56
2023-05-09T05:19:44.790Z,97952.72
2023-05-09T05:24:46.049Z,97958.63
2023-05-09T05:29:47.296Z,97960.13
2023-05-09T05:34:48.547Z,97958.53
2023-05-09T05:39:51.521Z,97963.94
2023-05-09T05:44:53.043Z,97961.34
2023-05-09T05:49:54.339Z,97954.53
2023-05-09T05:54:55.751Z,97937.69
2023-05-09T05:59:57.401Z,97927.22
2023-05-09T06:04:58.663Z,97919.50
2023-05-09T06:09:59.942Z,97916.78
2023-05-09T06:15:01.314Z,97907.78
2023-05-09T06:20:02.572Z,97895.66
2023-05-09T06:25:03.940Z,97895.16
2023-05-09T06:30:14.209Z,97893.00
2023-05-09T06:35:19.261Z,97886.25
2023-05-09T06:40:20.647Z,97878.09
2023-05-09T06:45:22.046Z,97872.34
2023-05-09T06:50:23.363Z,97860.78
2023-05-09T06:55:24.636Z,97865.66
2023-05-09T07:00:25.870Z,97865.75
2023-05-09T07:05:27.201Z,97851.44
2023-05-09T07:10:28.741Z,97837.00
2023-05-09T07:15:40.394Z,97830.31
2023-05-09T07:20:43.621Z,97821.09
2023-05-09T07:25:45.461Z,97819.13
2023-05-09T07:30:46.891Z,97810.81
2023-05-09T07:35:48.168Z,97812.16
2023-05-09T07:40:49.415Z,97800.66
2023-05-09T07:45:50.890Z,97785.28
2023-05-09T07:50:52.210Z,97781.94
2023-05-09T07:55:53.952Z,97769.91
2023-05-09T08:00:55.382Z,97768.28
2023-05-09T08:05:56.754Z,97766.78
2023-05-09T08:10:58.089Z,97773.47
2023-05-09T08:16:01.141Z,97762.00
2023-05-09T08:21:02.705Z,97744.25
2023-05-09T08:26:04.049Z,97741.25
2023-05-09T08:31:05.355Z,97730.25
2023-05-09T08:36:06.708Z,97720.03
2023-05-09T08:41:07.998Z,97713.25
2023-05-09T08:46:09.400Z,97709.78
2023-05-09T08:51:12.109Z,97697.44
2023-05-09T08:56:13.438Z,97702.50
2023-05-09T09:01:14.734Z,97699.28
2023-05-09T09:06:16.134Z,97686.31
2023-05-09T09:11:17.424Z,97666.31
2023-05-09T09:16:20.094Z,97655.31
2023-05-09T09:21:21.546Z,97646.00
2023-05-09T09:26:22.984Z,97643.16
2023-05-09T09:31:24.404Z,97637.69
2023-05-09T09:36:25.819Z,97631.16
2023-05-09T09:41:27.278Z,97612.97
2023-05-09T09:46:28.622Z,97608.53
2023-05-09T09:51:30.022Z,97620.56
2023-05-09T09:56:31.347Z,97582.09
2023-05-09T10:01:32.651Z,97569.75
2023-05-09T10:06:33.997Z,97545.78
2023-05-09T10:11:35.420Z,97554.97
2023-05-09T10:16:43.616Z,97526.66
2023-05-09T10:21:45.893Z,97526.41
2023-05-09T10:26:47.207Z,97510.53
2023-05-09T10:31:48.789Z,97491.38
2023-05-09T10:36:50.116Z,97486.06
2023-05-09T10:41:51.442Z,97483.34
2023-05-09T10:46:52.788Z,97477.09
2023-05-09T10:51:54.151Z,97475.34
2023-05-09T10:56:56.098Z,97470.34
2023-05-09T11:02:00.942Z,97462.13
2023-05-09T11:07:02.444Z,97462.44
2023-05-09T11:12:03.715Z,97457.25
2023-05-09T11:17:04.998Z,97462.16
2023-05-09T11:22:06.973Z,97453.25
2023-05-09T11:27:08.307Z,97453.09
2023-05-09T11:32:09.735Z,97440.44
2023-05-09T11:37:11.377Z,97434.03
2023-05-09T11:42:12.626Z,97409.00
2023-05-09T11:47:13.998Z,97402.25
2023-05-09T11:52:15.273Z,97396.84
2023-05-09T11:57:19.708Z,97384.28
2023-05-09T12:02:22.495Z,97387.09
2023-05-09T12:07:23.808Z,97370.09
2023-05-09T12:12:25.230Z,97363.38
2023-05-09T12:17:26.581Z,97348.50
2023-05-09T12:22:29.197Z,97333.09
2023-05-09T12:27:32.083Z,97345.81
2023-05-09T12:32:33.388Z,97331.06
2023-05-09T12:37:34.731Z,97331.41
2023-05-09T12:42:35.986Z,97317.06
2023-05-09T12:47:38.878Z,97315.06
2023-05-09T12:52:50.760Z,97307.88
2023-05-09T12:57:55.724Z,97299.00
2023-05-09T13:02:57.207Z,97292.84
2023-05-09T13:07:58.627Z,97296.19
2023-05-09T13:12:59.873Z,97289.06
2023-05-09T13:18:01.211Z,97283.34
2023-05-09T13:23:02.504Z,97263.81
2023-05-09T13:28:04.826Z,97254.06
2023-05-09T13:33:23.738Z,97251.91
2023-05-09T13:38:26.275Z,97248.19
2023-05-09T13:43:27.555Z,97229.50
2023-05-09T13:48:28.904Z,97224.81
2023-05-09T13:53:30.173Z,97215.97
2023-05-09T13:58:31.541Z,97212.22
2023-05-09T14:03:32.984Z,97198.00
2023-05-09T14:08:34.528Z,97202.38
2023-05-09T14:13:35.752Z,97182.19
2023-05-09T14:18:37.054Z,97167.31
2023-05-09T14:23:38.273Z,97176.34
2023-05-09T14:28:39.629Z,97151.53
2023-05-09T14:33:41.033Z,97142.91
2023-05-09T14:38:43.284Z,97127.84
2023-05-09T14:43:44.561Z,97130.63
2023-05-09T14:48:45.907Z,97116.97
2023-05-09T14:53:47.270Z,97103.47
2023-05-09T14:58:48.555Z,97100.59
2023-05-09T15:03:49.835Z,97091.50
2023-05-09T15:08:51.097Z,97069.56
2023-05-09T15:13:52.379Z,97063.31
2023-05-09T15:18:53.593Z,97062.03
2023-05-09T15:23:54.813Z,97057.38
2023-05-09T15:28:56.087Z,97050.25
2023-05-09T15:33:57.338Z,97028.88
2023-05-09T15:38:58.995Z,97017.16
2023-05-09T15:44:00.252Z,97018.75
2023-05-09T15:49:01.478Z,97011.06
2023-05-09T15:54:02.774Z,96995.75
2023-05-09T15:59:04.117Z,96995.47
2023-05-09T16:04:05.880Z,96990.28
2023-05-09T16:09:07.162Z,96983.25
2023-05-09T16:14:11.373Z,96985.44
2023-05-09T16:19:12.958Z,96978.03
2023-05-09T16:24:16.532Z,96970.44
2023-05-09T16:29:17.752Z,96974.34
2023-05-09T16:34:19.063Z,96973.09
2023-05-09T16:39:20.918Z,96961.06
2023-05-09T16:44:22.274Z,96962.22
2023-05-09T16:49:23.524Z,96958.34
2023-05-09T16:54:24.896Z,96943.34
2023-05-09T16:59:26.808Z,96940.34
2023-05-09T17:04:28.291Z,96929.28
2023-05-09T17:09:30.703Z,96928.94
2023-05-09T17:14:32.024Z,96935.41
2023-05-09T17:19:34.752Z,96935.03
2023-05-09T17:24:36.177Z,96935.13
2023-05-09T17:29:37.476Z,96946.44
2023-05-09T17:34:39.014Z,96946.63
2023-05-09T17:39:42.990Z,96945.28
2023-05-09T17:44:44.608Z,96946.53
2023-05-09T17:49:46.057Z,96949.53
2023-05-09T17:54:47.589Z,96941.09
2023-05-09T17:59:49.058Z,96939.38
2023-05-09T18:04:50.359Z,96943.66
2023-05-09T18:09:51.625Z,96950.81
2023-05-09T18:14:53.352Z,96952.91
2023-05-09T18:19:54.652Z,96944.38
2023-05-09T18:24:56.116Z,96957.09
2023-05-09T18:29:57.359Z,96966.47
2023-05-09T18:34:58.677Z,96969.22
2023-05-09T18:39:59.971Z,96971.16
2023-05-09T18:45:04.214Z,96972.13
2023-05-09T18:50:05.610Z,96972.13
2023-05-09T18:55:07.133Z,96967.50
2023-05-09T19:00:08.488Z,96966.34
2023-05-09T19:05:10.731Z,96971.84
2023-05-09T19:10:13.147Z,96975.06
2023-05-09T19:15:14.531Z,96989.53
2023-05-09T19:20:16.005Z,96989.66
2023-05-09T19:25:17.712Z,96988.28
2023-05-09T19:30:19.517Z,96992.84
2023-05-09T19:35:26.165Z,96991.22
2023-05-09T19:40:27.401Z,96995.66
2023-05-09T19:45:28.621Z,97001.34
2023-05-09T19:50:30.993Z,97001.72
2023-05-09T19:55:32.267Z,97005.56
2023-05-09T20:00:35.937Z,97005.06
2023-05-09T20:05:37.293Z,97008.94
2023-05-09T20:10:38.561Z,97012.31
2023-05-09T20:15:39.795Z,97024.63
2023-05-09T20:20:41.180Z,97018.75
2023-05-09T20:25:42.454Z,97010.31
2023-05-09T20:30:43.841Z,97012.03
2023-05-09T20:35:45.154Z,97017.97
2023-05-09T20:40:47.081Z,97020.53
2023-05-09T20:45:48.746Z,97022.19
2023-05-09T20:50:50.024Z,97016.28
2023-05-09T20:55:51.436Z,97015.34
2023-05-09T21:00:52.749Z,97023.78
2023-05-09T21:05:53.983Z,97021.06
2023-05-09T21:10:55.347Z,97023.56
2023-05-09T21:15:56.688Z,97027.13
2023-05-09T21:20:57.914Z,97020.69
2023-05-09T21:25:59.167Z,97024.13
2023-05-09T21:31:01.611Z,97021.75
2023-05-09T21:36:02.948Z,97011.75
2023-05-09T21:41:04.224Z,97006.78
2023-05-09T21:46:05.985Z,97006.28
2023-05-09T21:51:08.326Z,97001.38
2023-05-09T21:56:09.624Z,96991.28
2023-05-09T22:01:10.959Z,96992.72
2023-05-09T22:06:13.528Z,96993.28
2023-05-09T22:11:15.282Z,96992.13
2023-05-09T22:16:17.731Z,97001.13
2023-05-09T22:21:19.049Z,96997.50
2023-05-09T22:26:21.133Z,96989.72
2023-05-09T22:31:22.753Z,96992.75
2023-05-09T22:36:24.065Z,97000.31
2023-05-09T22:41:25.377Z,97023.25
2023-05-09T22:46:26.648Z,97023.50
2023-05-09T22:51:27.930Z,97015.28
2023-05-09T22:56:29.282Z,97009.31
2023-05-09T23:01:31.185Z,97004.38
2023-05-09T23:06:33.758Z,96996.97
2023-05-09T23:11:35.011Z,96980.78
2023-05-09T23:16:36.273Z,96975.41
2023-05-09T23:21:37.504Z,96981.28
2023-05-09T23:26:38.816Z,96980.53
2023-05-09T23:31:40.170Z,96978.81
2023-05-09T23:36:41.489Z,96974.47
2023-05-09T23:41:42.696Z,96969.00
2023-05-09T23:46:44.016Z,96970.84
2023-05-09T23:51:45.301Z,96969.81
2023-05-09T23:56:47.734Z,96977.69
